createdAt,value
2023-02-10T00:01:36.889Z,18.30
2023-02-10T00:04:05.455Z,18.93
2023-02-10T00:06:34.193Z,16.97
2023-02-10T00:09:03.523Z,17.23
2023-02-10T00:11:49.101Z,16.60
2023-02-10T00:14:19.550Z,16.93
2023-02-10T00:16:48.411Z,15.07
2023-02-10T00:19:16.028Z,15.97
2023-02-10T00:21:43.781Z,15.20
2023-02-10T00:24:11.398Z,15.40
2023-02-10T00:26:39.103Z,15.80
2023-02-10T00:29:06.825Z,16.30
2023-02-10T00:31:35.985Z,15.97
2023-02-10T00:34:03.700Z,15.73
2023-02-10T00:36:31.424Z,15.10
2023-02-10T00:38:59.058Z,15.23
2023-02-10T00:41:26.816Z,15.03
2023-02-10T00:43:54.992Z,14.93
2023-02-10T00:46:23.406Z,14.40
2023-02-10T00:48:52.665Z,14.67
2023-02-10T00:51:20.635Z,15.17
2023-02-10T00:56:23.953Z,13.57
2023-02-10T00:58:51.633Z,13.53
2023-02-10T01:01:19.286Z,14.10
2023-02-10T01:03:46.964Z,13.33
2023-02-10T01:06:16.669Z,14.53
2023-02-10T01:08:44.591Z,15.17
2023-02-10T01:11:13.487Z,14.90
2023-02-10T01:13:41.683Z,15.90
2023-02-10T01:16:11.361Z,15.27
2023-02-10T01:18:39.354Z,15.63
2023-02-10T01:21:11.147Z,14.80
2023-02-10T01:23:40.575Z,14.97
2023-02-10T01:26:08.775Z,14.80
2023-02-10T01:28:37.703Z,15.20
2023-02-10T01:31:07.930Z,15.93
2023-02-10T01:33:35.933Z,14.50
2023-02-10T01:36:06.631Z,15.80
2023-02-10T01:38:35.110Z,14.87
2023-02-10T01:41:04.924Z,15.57
2023-02-10T01:43:32.584Z,14.83
2023-02-10T01:46:00.460Z,14.93
2023-02-10T01:48:28.246Z,15.07
2023-02-10T01:50:59.686Z,15.13
2023-02-10T01:53:27.608Z,16.47
2023-02-10T01:55:57.868Z,15.90
2023-02-10T01:58:29.177Z,15.40
2023-02-10T02:00:57.031Z,14.57
2023-02-10T02:03:24.790Z,14.43
2023-02-10T02:05:52.474Z,14.97
2023-02-10T02:08:22.290Z,14.90
2023-02-10T02:11:05.300Z,14.53
2023-02-10T02:13:47.442Z,15.57
2023-02-10T02:16:26.826Z,13.73
2023-02-10T02:18:59.099Z,14.63
2023-02-10T02:22:08.896Z,14.07
2023-02-10T02:24:45.528Z,13.63
2023-02-10T02:27:43.315Z,14.50
2023-02-10T02:30:38.939Z,14.57
2023-02-10T02:33:10.685Z,13.67
2023-02-10T02:35:42.936Z,14.17
2023-02-10T02:38:10.675Z,14.77
2023-02-10T02:40:38.316Z,14.07
2023-02-10T02:43:06.525Z,14.03
2023-02-10T02:45:39.470Z,13.90
2023-02-10T02:48:18.191Z,15.37
2023-02-10T02:50:52.959Z,14.47
2023-02-10T02:53:26.238Z,14.10
2023-02-10T02:56:03.659Z,14.00
2023-02-10T02:58:36.114Z,13.77
2023-02-10T03:01:07.729Z,14.07
2023-02-10T03:03:37.597Z,14.43
2023-02-10T03:06:05.870Z,12.97
2023-02-10T03:08:36.246Z,13.50
2023-02-10T03:11:04.119Z,12.83
2023-02-10T03:13:31.849Z,13.33
2023-02-10T03:16:00.250Z,13.80
2023-02-10T03:18:28.190Z,13.63
2023-02-10T03:20:57.226Z,12.80
2023-02-10T03:23:24.869Z,13.03
2023-02-10T03:25:52.717Z,13.70
2023-02-10T03:28:20.465Z,12.63
2023-02-10T03:30:51.270Z,13.00
2023-02-10T03:33:19.499Z,12.40
2023-02-10T03:35:49.228Z,13.67
2023-02-10T03:38:18.444Z,12.77
2023-02-10T03:40:46.120Z,12.73
2023-02-10T03:43:13.807Z,12.87
2023-02-10T03:45:41.852Z,12.63
2023-02-10T03:48:09.865Z,12.10
2023-02-10T03:50:37.575Z,11.97
2023-02-10T03:53:05.372Z,12.23
2023-02-10T03:55:35.322Z,11.47
2023-02-10T03:58:03.162Z,11.50
2023-02-10T04:00:31.118Z,11.13
2023-02-10T04:02:59.112Z,10.40
2023-02-10T04:05:26.858Z,10.50
2023-02-10T04:07:54.534Z,9.93
2023-02-10T04:10:22.537Z,11.40
2023-02-10T04:12:51.611Z,10.73
2023-02-10T04:15:19.589Z,11.30
2023-02-10T04:17:47.294Z,10.60
2023-02-10T04:20:15.057Z,11.87
2023-02-10T04:22:44.396Z,11.03
2023-02-10T04:25:12.453Z,10.93
2023-02-10T04:27:40.120Z,10.90
2023-02-10T04:30:10.995Z,11.57
2023-02-10T04:32:38.645Z,10.60
2023-02-10T04:35:06.684Z,11.03
2023-02-10T04:37:34.349Z,9.00
2023-02-10T04:40:02.074Z,10.37
2023-02-10T04:42:31.758Z,9.23
2023-02-10T04:44:59.981Z,8.77
2023-02-10T04:47:29.714Z,10.57
2023-02-10T04:49:57.419Z,10.40
2023-02-10T04:52:25.064Z,11.00
2023-02-10T04:54:52.816Z,10.60
2023-02-10T04:57:20.477Z,10.57
2023-02-10T04:59:48.150Z,10.40
2023-02-10T05:02:15.870Z,10.47
2023-02-10T05:04:44.970Z,10.10
2023-02-10T05:07:13.243Z,9.87
2023-02-10T05:09:40.931Z,9.50
2023-02-10T05:12:08.702Z,9.87
2023-02-10T05:14:36.370Z,9.43
2023-02-10T05:17:04.015Z,9.13
2023-02-10T05:19:31.764Z,8.47
2023-02-10T05:22:00.930Z,8.80
2023-02-10T05:24:28.624Z,9.40
2023-02-10T05:26:56.335Z,8.57
2023-02-10T05:29:24.076Z,9.03
2023-02-10T05:31:51.704Z,8.77
2023-02-10T05:34:19.408Z,8.77
2023-02-10T05:36:47.069Z,10.50
2023-02-10T05:39:25.115Z,9.70
2023-02-10T05:41:53.340Z,10.70
2023-02-10T05:44:21.332Z,8.90
2023-02-10T05:46:49.024Z,8.60
2023-02-10T05:49:17.174Z,8.83
2023-02-10T05:51:45.039Z,8.47
2023-02-10T05:57:07.588Z,8.60
2023-02-10T05:59:35.265Z,8.30
2023-02-10T06:02:02.975Z,8.03
2023-02-10T06:04:30.685Z,7.97
2023-02-10T06:06:58.501Z,8.43
2023-02-10T06:09:28.333Z,8.03
2023-02-10T06:11:56.172Z,7.87
2023-02-10T06:14:23.981Z,8.40
2023-02-10T06:16:51.613Z,8.10
2023-02-10T06:19:20.757Z,7.30
2023-02-10T06:21:48.578Z,7.40
2023-02-10T06:24:16.647Z,7.03
2023-02-10T06:26:45.753Z,7.33
2023-02-10T06:29:13.416Z,7.50
2023-02-10T06:31:41.158Z,7.27
2023-02-10T06:34:09.759Z,7.20
2023-02-10T06:36:37.486Z,7.33
2023-02-10T06:39:05.509Z,6.93
2023-02-10T06:41:33.512Z,7.20
2023-02-10T06:44:02.598Z,7.67
2023-02-10T06:46:30.270Z,7.90
2023-02-10T06:48:59.701Z,7.50
2023-02-10T06:51:27.516Z,7.77
2023-02-10T06:53:55.207Z,8.23
2023-02-10T06:56:22.950Z,8.70
2023-02-10T06:58:50.667Z,12.13
2023-02-10T07:01:20.276Z,13.90
2023-02-10T07:03:48.010Z,13.17
2023-02-10T07:06:19.168Z,12.33
2023-02-10T07:08:47.151Z,12.07
2023-02-10T07:11:15.262Z,10.83
2023-02-10T07:13:43.747Z,9.53
2023-02-10T07:16:15.389Z,8.13
2023-02-10T07:18:44.617Z,8.30
2023-02-10T07:21:12.339Z,8.13
2023-02-10T07:23:40.083Z,7.63
2023-02-10T07:26:08.069Z,7.60
2023-02-10T07:28:35.966Z,8.17
2023-02-10T07:31:03.878Z,7.90
2023-02-10T07:33:31.672Z,7.50
2023-02-10T07:36:03.296Z,8.00
2023-02-10T07:38:31.459Z,8.50
2023-02-10T07:40:59.664Z,8.80
2023-02-10T07:43:27.437Z,9.27
2023-02-10T07:45:55.216Z,9.43
2023-02-10T07:48:22.953Z,8.50
2023-02-10T07:50:52.274Z,8.50
2023-02-10T07:53:21.459Z,8.57
2023-02-10T07:55:49.546Z,8.03
2023-02-10T07:58:17.379Z,7.33
2023-02-10T08:00:45.105Z,7.43
2023-02-10T08:03:14.506Z,7.30
2023-02-10T08:05:43.687Z,6.73
2023-02-10T08:08:13.824Z,6.63
2023-02-10T08:10:43.794Z,6.03
2023-02-10T08:13:11.511Z,7.63
2023-02-10T08:15:39.351Z,7.80
2023-02-10T08:18:07.161Z,7.67
2023-02-10T08:20:34.902Z,7.43
2023-02-10T08:23:02.575Z,7.07
2023-02-10T08:25:30.229Z,7.03
2023-02-10T08:28:00.091Z,6.73
2023-02-10T08:30:27.923Z,6.90
2023-02-10T08:32:55.595Z,6.90
2023-02-10T08:35:23.290Z,6.80
2023-02-10T08:37:51.089Z,7.23
2023-02-10T08:40:19.072Z,6.57
2023-02-10T08:42:46.813Z,7.27
2023-02-10T08:45:15.909Z,7.90
2023-02-10T08:47:43.586Z,7.37
2023-02-10T08:50:11.346Z,6.67
2023-02-10T08:52:39.057Z,6.67
2023-02-10T08:55:08.318Z,6.57
2023-02-10T08:57:37.738Z,6.83
2023-02-10T09:00:06.558Z,6.20
2023-02-10T09:02:35.831Z,6.47
2023-02-10T09:05:10.544Z,6.37
2023-02-10T09:07:39.279Z,6.53
2023-02-10T09:10:11.002Z,6.63
2023-02-10T09:12:38.778Z,6.13
2023-02-10T09:15:06.999Z,5.80
2023-02-10T09:17:36.224Z,5.93
2023-02-10T09:20:04.142Z,6.23
2023-02-10T09:22:31.841Z,6.20
2023-02-10T09:25:00.647Z,5.90
2023-02-10T09:27:28.424Z,5.90
2023-02-10T09:29:56.204Z,6.50
2023-02-10T09:32:24.133Z,5.67
2023-02-10T09:34:53.492Z,6.20
2023-02-10T09:37:22.220Z,7.00
2023-02-10T09:39:51.764Z,6.50
2023-02-10T09:42:27.080Z,6.73
2023-02-10T09:44:58.222Z,6.63
2023-02-10T09:47:35.677Z,6.40
2023-02-10T09:50:31.090Z,7.00
2023-02-10T09:53:07.467Z,6.17
2023-02-10T09:55:37.771Z,7.13
2023-02-10T09:58:11.286Z,7.23
2023-02-10T10:00:42.517Z,6.73
2023-02-10T10:03:15.406Z,6.60
2023-02-10T10:05:51.137Z,8.27
2023-02-10T10:08:25.205Z,8.00
2023-02-10T10:10:53.378Z,7.60
2023-02-10T10:13:24.552Z,7.93
2023-02-10T10:16:11.750Z,7.10
2023-02-10T10:18:46.063Z,8.57
2023-02-10T10:21:19.659Z,7.80
2023-02-10T10:23:57.883Z,7.90
2023-02-10T10:26:41.286Z,7.60
2023-02-10T10:29:21.867Z,7.47
2023-02-10T10:31:52.223Z,8.50
2023-02-10T10:34:21.720Z,8.10
2023-02-10T10:36:53.294Z,7.77
2023-02-10T10:39:32.197Z,7.60
2023-02-10T10:42:02.791Z,7.50
2023-02-10T10:44:32.403Z,7.13
2023-02-10T10:47:09.380Z,7.13
2023-02-10T10:49:37.508Z,7.57
2023-02-10T10:52:25.567Z,7.33
2023-02-10T10:57:42.035Z,6.77
2023-02-10T11:00:22.389Z,6.77
2023-02-10T11:02:58.822Z,7.00
2023-02-10T11:05:31.173Z,6.83
2023-02-10T11:08:00.835Z,7.83
2023-02-10T11:10:32.243Z,8.87
2023-02-10T11:13:00.148Z,8.53
2023-02-10T11:15:34.986Z,8.03
2023-02-10T11:18:03.530Z,7.70
2023-02-10T11:20:32.768Z,7.37
2023-02-10T11:23:04.059Z,7.87
2023-02-10T11:25:34.146Z,8.23
2023-02-10T11:28:03.229Z,7.30
2023-02-10T11:30:33.675Z,8.00
2023-02-10T11:33:02.987Z,7.97
2023-02-10T11:35:32.093Z,8.30
2023-02-10T11:38:04.147Z,7.20
2023-02-10T11:40:33.111Z,7.37
2023-02-10T11:43:01.937Z,7.40
2023-02-10T11:45:31.209Z,7.43
2023-02-10T11:48:03.381Z,6.97
2023-02-10T11:50:33.996Z,6.57
2023-02-10T11:53:03.341Z,7.03
2023-02-10T11:55:36.573Z,7.43
2023-02-10T11:58:39.770Z,6.37
2023-02-10T12:01:11.251Z,6.87
2023-02-10T12:03:54.983Z,6.03
2023-02-10T12:06:36.732Z,6.20
2023-02-10T12:09:13.726Z,6.10
2023-02-10T12:11:45.427Z,5.37
2023-02-10T12:14:28.655Z,5.80
2023-02-10T12:17:03.420Z,6.43
2023-02-10T12:19:34.482Z,6.10
2023-02-10T12:22:08.969Z,6.90
2023-02-10T12:25:02.705Z,6.50
2023-02-10T12:27:39.516Z,6.17
2023-02-10T12:30:10.633Z,6.17
2023-02-10T12:32:47.683Z,6.70
2023-02-10T12:35:23.780Z,7.23
2023-02-10T12:38:01.828Z,6.20
2023-02-10T12:40:42.120Z,6.53
2023-02-10T12:43:23.764Z,6.00
2023-02-10T12:45:54.896Z,6.30
2023-02-10T12:48:27.720Z,6.50
2023-02-10T12:51:07.706Z,6.63
2023-02-10T12:53:37.734Z,7.23
2023-02-10T12:56:10.782Z,7.10
2023-02-10T12:58:41.670Z,6.87
2023-02-10T13:01:14.058Z,6.97
2023-02-10T13:03:44.085Z,6.53
2023-02-10T13:06:25.162Z,6.30
2023-02-10T13:08:56.220Z,6.53
2023-02-10T13:11:32.123Z,6.67
2023-02-10T13:14:00.931Z,6.43
2023-02-10T13:16:31.888Z,6.27
2023-02-10T13:19:07.723Z,6.30
2023-02-10T13:21:39.983Z,5.93
2023-02-10T13:24:12.512Z,6.00
2023-02-10T13:26:52.957Z,5.60
2023-02-10T13:29:25.738Z,6.27
2023-02-10T13:32:11.746Z,5.60
2023-02-10T13:34:43.800Z,5.70
2023-02-10T13:37:16.151Z,5.30
2023-02-10T13:39:51.499Z,5.60
2023-02-10T13:42:26.865Z,5.40
2023-02-10T13:45:03.065Z,5.07
2023-02-10T13:47:34.870Z,5.17
2023-02-10T13:50:04.479Z,4.63
2023-02-10T13:52:35.696Z,4.77
2023-02-10T13:57:58.422Z,4.80
2023-02-10T14:00:28.285Z,4.57
2023-02-10T14:03:04.330Z,4.97
2023-02-10T14:05:34.272Z,5.00
2023-02-10T14:08:02.317Z,5.07
2023-02-10T14:10:34.362Z,4.93
2023-02-10T14:13:06.452Z,5.03
2023-02-10T14:15:36.411Z,4.60
2023-02-10T14:18:07.419Z,4.93
2023-02-10T14:20:39.428Z,4.47
2023-02-10T14:23:08.504Z,4.90
2023-02-10T14:25:40.627Z,4.83
2023-02-10T16:21:50.075Z,6.40
2023-02-10T16:24:20.233Z,6.70
2023-02-10T16:26:48.831Z,7.43
2023-02-10T16:29:18.395Z,7.13
2023-02-10T16:31:46.296Z,7.10
2023-02-10T16:34:14.346Z,7.87
2023-02-10T16:36:43.052Z,7.17
2023-02-10T16:39:15.606Z,8.00
2023-02-10T16:41:43.338Z,7.60
2023-02-10T16:44:10.952Z,8.30
2023-02-10T16:46:38.942Z,9.43
2023-02-10T16:49:06.846Z,9.83
2023-02-10T16:51:34.530Z,8.87
2023-02-10T16:54:08.446Z,8.63
2023-02-10T16:56:37.925Z,9.63
2023-02-10T16:59:06.768Z,8.67
2023-02-10T17:01:34.607Z,8.17
2023-02-10T17:04:03.123Z,8.50
2023-02-10T17:06:31.448Z,10.00
2023-02-10T17:08:59.236Z,9.23
2023-02-10T17:11:26.925Z,10.20
2023-02-10T17:13:55.879Z,10.20
2023-02-10T17:16:28.532Z,10.70
2023-02-10T17:18:56.271Z,10.50
2023-02-10T17:21:23.926Z,10.70
2023-02-10T17:23:51.640Z,12.63
2023-02-10T17:26:19.552Z,13.10
2023-02-10T17:28:47.217Z,14.50
2023-02-10T17:31:18.490Z,13.77
2023-02-10T17:33:50.643Z,13.33
2023-02-10T17:36:18.751Z,12.53
2023-02-10T17:38:48.318Z,13.27
2023-02-10T17:41:16.158Z,12.70
2023-02-10T17:43:44.843Z,13.50
2023-02-10T17:46:12.865Z,12.90
2023-02-10T17:48:41.903Z,13.07
2023-02-10T17:51:12.271Z,13.77
2023-02-10T17:53:39.957Z,14.17
2023-02-10T17:56:08.180Z,13.07
2023-02-10T17:58:36.110Z,13.70
2023-02-10T18:01:04.424Z,12.80
2023-02-10T18:03:32.219Z,13.10
2023-02-10T18:06:01.517Z,12.70
2023-02-10T18:08:29.847Z,12.63
2023-02-10T18:10:57.519Z,13.43
2023-02-10T18:13:25.219Z,12.80
2023-02-10T18:15:53.126Z,13.43
2023-02-10T18:18:20.826Z,12.90
2023-02-10T18:20:48.604Z,13.67
2023-02-10T18:23:17.639Z,12.53
2023-02-10T18:25:45.515Z,12.93
2023-02-10T18:28:13.436Z,12.90
2023-02-10T18:30:41.667Z,13.17
2023-02-10T18:33:11.595Z,12.00
2023-02-10T18:35:39.330Z,12.20
2023-02-10T18:38:07.916Z,12.23
2023-02-10T18:40:38.246Z,11.93
2023-02-10T18:43:05.991Z,12.97
2023-02-10T18:45:33.721Z,11.93
2023-02-10T18:48:01.365Z,12.80
2023-02-10T18:50:29.386Z,13.07
2023-02-10T18:52:57.061Z,12.53
2023-02-10T18:55:24.742Z,13.13
2023-02-10T18:57:54.194Z,14.10
2023-02-10T19:00:21.971Z,14.80
2023-02-10T19:02:49.658Z,18.23
2023-02-10T19:05:17.768Z,19.87
2023-02-10T19:07:45.380Z,19.43
2023-02-10T19:10:13.374Z,19.13
2023-02-10T19:12:41.070Z,18.50
2023-02-10T19:15:10.842Z,17.20
2023-02-10T19:17:40.585Z,17.23
2023-02-10T19:20:08.952Z,17.27
2023-02-10T19:22:36.888Z,17.10
2023-02-10T19:25:04.574Z,17.33
2023-02-10T19:27:32.269Z,16.30
2023-02-10T19:29:59.906Z,17.20
2023-02-10T19:32:28.991Z,16.37
2023-02-10T19:34:56.737Z,17.43
2023-02-10T19:37:24.588Z,16.70
2023-02-10T19:39:52.246Z,16.00
2023-02-10T19:42:19.895Z,14.70
2023-02-10T19:44:48.627Z,14.37
2023-02-10T19:47:18.828Z,13.37
2023-02-10T19:49:47.974Z,14.17
2023-02-10T19:52:15.623Z,13.47
2023-02-10T19:54:43.254Z,13.07
2023-02-10T19:57:10.888Z,13.23
2023-02-10T19:59:38.536Z,12.80
2023-02-10T20:02:06.179Z,11.73
2023-02-10T20:04:33.911Z,12.50
2023-02-10T20:07:02.993Z,12.20
2023-02-10T20:09:32.078Z,11.00
2023-02-10T20:11:59.727Z,11.47
2023-02-10T20:14:27.398Z,10.37
2023-02-10T20:16:55.117Z,9.80
2023-02-10T20:19:22.799Z,10.13
2023-02-10T20:21:50.432Z,9.73
2023-02-10T20:24:19.560Z,9.93
2023-02-10T20:26:47.687Z,9.60
2023-02-10T20:29:15.613Z,9.33
2023-02-10T20:31:43.813Z,10.37
2023-02-10T20:34:11.641Z,11.37
2023-02-10T20:36:39.335Z,11.03
2023-02-10T20:39:08.219Z,10.83
2023-02-10T20:41:37.258Z,10.77
2023-02-10T20:44:04.991Z,10.07
2023-02-10T20:46:33.857Z,10.13
2023-02-10T20:49:04.654Z,10.23
2023-02-10T20:51:33.795Z,10.67
2023-02-10T20:54:01.848Z,11.93
2023-02-10T20:56:30.615Z,12.83
2023-02-10T20:59:03.725Z,10.73
2023-02-10T21:01:32.271Z,10.80
2023-02-10T21:04:00.008Z,10.37
2023-02-10T21:06:27.847Z,10.83
2023-02-10T21:08:57.590Z,11.00
2023-02-10T21:11:27.658Z,10.30
2023-02-10T21:13:55.685Z,10.57
2023-02-10T21:16:24.832Z,11.07
2023-02-10T21:18:52.775Z,10.40
2023-02-10T21:24:11.370Z,10.33
2023-02-10T21:26:39.090Z,10.37
2023-02-10T21:29:06.783Z,11.17
2023-02-10T21:31:37.333Z,12.37
2023-02-10T21:34:05.866Z,11.83
2023-02-10T21:36:33.629Z,12.03
2023-02-10T21:39:02.228Z,12.37
2023-02-10T21:41:44.693Z,11.73
2023-02-10T21:44:15.488Z,12.13
2023-02-10T21:46:45.884Z,11.40
2023-02-10T21:49:14.212Z,12.20
2023-02-10T21:51:42.538Z,11.53
2023-02-10T21:54:10.504Z,11.40
2023-02-10T21:56:38.192Z,10.70
2023-02-10T21:59:06.219Z,11.47
2023-02-10T22:01:34.895Z,10.70
2023-02-10T22:04:05.914Z,11.30
2023-02-10T22:06:33.967Z,11.43
2023-02-10T22:09:02.352Z,11.83
2023-02-10T22:11:30.416Z,11.03
2023-02-10T22:13:58.043Z,12.23
2023-02-10T22:16:25.810Z,11.33
2023-02-10T22:18:53.520Z,13.03
2023-02-10T22:24:20.365Z,12.03
2023-02-10T22:26:48.039Z,12.17
2023-02-10T22:29:15.706Z,11.77
2023-02-10T22:31:47.546Z,11.80
2023-02-10T22:34:15.241Z,12.93
2023-02-10T22:36:43.139Z,11.43
2023-02-10T22:39:10.859Z,12.90
2023-02-10T22:41:39.874Z,13.30
2023-02-10T22:44:07.837Z,13.73
2023-02-10T22:46:35.987Z,13.60
2023-02-10T22:49:03.902Z,14.10
2023-02-10T22:51:33.349Z,13.27
2023-02-10T22:54:03.303Z,15.10
2023-02-10T22:56:32.657Z,14.17
2023-02-10T22:59:02.404Z,14.80
2023-02-10T23:01:31.995Z,14.63
2023-02-10T23:03:59.971Z,14.87
2023-02-10T23:06:27.654Z,14.57
2023-02-10T23:08:55.721Z,13.30
2023-02-10T23:11:27.223Z,16.10
2023-02-10T23:13:54.939Z,14.77
2023-02-10T23:16:24.027Z,14.13
2023-02-10T23:18:51.883Z,13.90
2023-02-10T23:21:21.283Z,13.47
2023-02-10T23:23:50.547Z,12.57
2023-02-10T23:26:22.694Z,13.17
2023-02-10T23:28:50.443Z,12.60
2023-02-10T23:31:20.154Z,12.33
2023-02-10T23:33:51.279Z,12.50
2023-02-10T23:36:19.257Z,12.10
2023-02-10T23:38:46.920Z,11.50
2023-02-10T23:41:14.570Z,10.97
2023-02-10T23:43:42.252Z,11.50
2023-02-10T23:46:10.508Z,11.87
2023-02-10T23:48:38.234Z,11.83
2023-02-10T23:51:12.077Z,11.73
2023-02-10T23:53:39.718Z,12.13
2023-02-10T23:56:08.313Z,11.90
2023-02-10T23:58:36.426Z,12.50
